sensor_id;sensor_type;location;lat;lon;timestamp;temperature;humidity
20815;DHT22;10568;48.176;16.316;2022-08-01T00:00:25;20.20;99.90
20815;DHT22;10568;48.176;16.316;2022-08-01T00:02:51;20.20;99.90
20815;DHT22;10568;48.176;16.316;2022-08-01T00:05:17;20.20;99.90
20815;DHT22;10568;48.176;16.316;2022-08-01T00:07:42;20.20;99.90
20815;DHT22;10568;48.176;16.316;2022-08-01T00:10:11;20.20;99.90
20815;DHT22;10568;48.176;16.316;2022-08-01T00:12:37;20.10;99.90
20815;DHT22;10568;48.176;16.316;2022-08-01T00:15:05;20.10;99.90
20815;DHT22;10568;48.176;16.316;2022-08-01T00:17:31;20.10;99.90
20815;DHT22;10568;48.176;16.316;2022-08-01T00:19:57;20.10;99.90
20815;DHT22;10568;48.176;16.316;2022-08-01T00:22:22;20.20;99.90
20815;DHT22;10568;48.176;16.316;2022-08-01T00:24:49;20.20;99.90
20815;DHT22;10568;48.176;16.316;2022-08-01T00:27:15;20.10;99.90
20815;DHT22;10568;48.176;16.316;2022-08-01T00:29:41;20.10;99.90
20815;DHT22;10568;48.176;16.316;2022-08-01T00:32:07;20.00;99.90
20815;DHT22;10568;48.176;16.316;2022-08-01T00:34:33;20.10;99.90
20815;DHT22;10568;48.176;16.316;2022-08-01T00:36:59;20.00;99.90
20815;DHT22;10568;48.176;16.316;2022-08-01T00:39:25;20.00;99.90
20815;DHT22;10568;48.176;16.316;2022-08-01T00:41:51;20.00;99.90
20815;DHT22;10568;48.176;16.316;2022-08-01T00:44:17;20.00;99.90
20815;DHT22;10568;48.176;16.316;2022-08-01T00:46:42;20.00;99.90
20815;DHT22;10568;48.176;16.316;2022-08-01T00:49:08;20.00;99.90
20815;DHT22;10568;48.176;16.316;2022-08-01T00:51:34;20.00;99.90
20815;DHT22;10568;48.176;16.316;2022-08-01T00:54:00;20.00;99.90
20815;DHT22;10568;48.176;16.316;2022-08-01T00:56:27;20.00;99.90
20815;DHT22;10568;48.176;16.316;2022-08-01T00:58:54;20.00;99.90
20815;DHT22;10568;48.176;16.316;2022-08-01T01:01:21;20.00;99.90
20815;DHT22;10568;48.176;16.316;2022-08-01T01:03:48;20.00;99.90
20815;DHT22;10568;48.176;16.316;2022-08-01T01:06:25;20.00;99.90
20815;DHT22;10568;48.176;16.316;2022-08-01T01:09:23;19.90;99.90
20815;DHT22;10568;48.176;16.316;2022-08-01T01:12:07;19.90;99.90
20815;DHT22;10568;48.176;16.316;2022-08-01T01:17:27;19.80;99.90
20815;DHT22;10568;48.176;16.316;2022-08-01T01:19:56;19.90;99.90
20815;DHT22;10568;48.176;16.316;2022-08-01T01:25:37;19.80;99.90
20815;DHT22;10568;48.176;16.316;2022-08-01T01:30:45;19.70;99.90
20815;DHT22;10568;48.176;16.316;2022-08-01T01:33:12;19.70;99.90
20815;DHT22;10568;48.176;16.316;2022-08-01T01:35:45;19.70;99.90
20815;DHT22;10568;48.176;16.316;2022-08-01T01:38:22;19.60;99.90
20815;DHT22;10568;48.176;16.316;2022-08-01T01:40:50;19.60;99.90
20815;DHT22;10568;48.176;16.316;2022-08-01T01:43:19;19.60;99.90
20815;DHT22;10568;48.176;16.316;2022-08-01T01:45:47;19.60;99.90
20815;DHT22;10568;48.176;16.316;2022-08-01T01:48:17;19.60;99.90
20815;DHT22;10568;48.176;16.316;2022-08-01T01:50:46;19.60;99.90
20815;DHT22;10568;48.176;16.316;2022-08-01T01:53:15;19.60;99.90
20815;DHT22;10568;48.176;16.316;2022-08-01T01:55:43;19.70;99.90
20815;DHT22;10568;48.176;16.316;2022-08-01T01:58:12;19.70;99.90
20815;DHT22;10568;48.176;16.316;2022-08-01T02:00:40;19.80;99.90
20815;DHT22;10568;48.176;16.316;2022-08-01T02:03:09;19.80;99.90
20815;DHT22;10568;48.176;16.316;2022-08-01T02:05:36;19.80;99.90
20815;DHT22;10568;48.176;16.316;2022-08-01T02:08:04;19.90;99.90
20815;DHT22;10568;48.176;16.316;2022-08-01T02:10:32;19.90;99.90
20815;DHT22;10568;48.176;16.316;2022-08-01T02:12:59;19.90;99.90
20815;DHT22;10568;48.176;16.316;2022-08-01T02:15:27;19.90;99.90
20815;DHT22;10568;48.176;16.316;2022-08-01T02:17:56;20.00;99.90
20815;DHT22;10568;48.176;16.316;2022-08-01T02:20:24;20.00;99.90
20815;DHT22;10568;48.176;16.316;2022-08-01T02:23:00;20.00;99.90
20815;DHT22;10568;48.176;16.316;2022-08-01T02:25:50;20.10;99.90
20815;DHT22;10568;48.176;16.316;2022-08-01T02:28:22;20.10;99.90
20815;DHT22;10568;48.176;16.316;2022-08-01T02:30:56;20.10;99.90
20815;DHT22;10568;48.176;16.316;2022-08-01T02:33:29;20.20;99.90
20815;DHT22;10568;48.176;16.316;2022-08-01T02:35:59;20.20;99.90
20815;DHT22;10568;48.176;16.316;2022-08-01T02:38:28;20.20;99.90
20815;DHT22;10568;48.176;16.316;2022-08-01T02:41:02;20.20;99.90
20815;DHT22;10568;48.176;16.316;2022-08-01T02:43:30;20.20;99.90
20815;DHT22;10568;48.176;16.316;2022-08-01T02:46:01;20.20;99.90
20815;DHT22;10568;48.176;16.316;2022-08-01T02:48:30;20.20;99.90
20815;DHT22;10568;48.176;16.316;2022-08-01T02:51:00;20.20;99.90
20815;DHT22;10568;48.176;16.316;2022-08-01T02:53:31;20.20;99.90
20815;DHT22;10568;48.176;16.316;2022-08-01T02:55:57;20.20;99.90
20815;DHT22;10568;48.176;16.316;2022-08-01T02:58:24;20.20;99.90
20815;DHT22;10568;48.176;16.316;2022-08-01T03:00:51;20.20;99.90
20815;DHT22;10568;48.176;16.316;2022-08-01T03:03:18;20.30;99.90
20815;DHT22;10568;48.176;16.316;2022-08-01T03:05:44;20.30;99.90
20815;DHT22;10568;48.176;16.316;2022-08-01T03:08:12;20.30;99.90
20815;DHT22;10568;48.176;16.316;2022-08-01T03:10:42;20.30;99.90
20815;DHT22;10568;48.176;16.316;2022-08-01T03:13:09;20.30;99.90
20815;DHT22;10568;48.176;16.316;2022-08-01T03:15:39;20.30;99.90
20815;DHT22;10568;48.176;16.316;2022-08-01T03:18:07;20.30;99.90
20815;DHT22;10568;48.176;16.316;2022-08-01T03:20:34;20.30;99.90
20815;DHT22;10568;48.176;16.316;2022-08-01T03:23:11;20.30;99.90
20815;DHT22;10568;48.176;16.316;2022-08-01T03:25:40;20.30;99.90
20815;DHT22;10568;48.176;16.316;2022-08-01T03:28:08;20.30;99.90
20815;DHT22;10568;48.176;16.316;2022-08-01T03:30:36;20.30;99.90
20815;DHT22;10568;48.176;16.316;2022-08-01T03:33:02;20.30;99.90
20815;DHT22;10568;48.176;16.316;2022-08-01T03:35:33;20.30;99.90
20815;DHT22;10568;48.176;16.316;2022-08-01T03:38:01;20.40;99.90
20815;DHT22;10568;48.176;16.316;2022-08-01T03:40:36;20.40;99.90
20815;DHT22;10568;48.176;16.316;2022-08-01T03:43:12;20.30;99.90
20815;DHT22;10568;48.176;16.316;2022-08-01T03:45:49;20.30;99.90
20815;DHT22;10568;48.176;16.316;2022-08-01T03:48:21;20.40;99.90
20815;DHT22;10568;48.176;16.316;2022-08-01T03:50:51;20.40;99.90
20815;DHT22;10568;48.176;16.316;2022-08-01T03:53:22;20.40;99.90
20815;DHT22;10568;48.176;16.316;2022-08-01T03:55:48;20.40;99.90
20815;DHT22;10568;48.176;16.316;2022-08-01T03:58:15;20.40;99.90
20815;DHT22;10568;48.176;16.316;2022-08-01T04:00:42;20.40;99.90
20815;DHT22;10568;48.176;16.316;2022-08-01T04:03:09;20.40;99.90
20815;DHT22;10568;48.176;16.316;2022-08-01T04:05:36;20.40;99.90
20815;DHT22;10568;48.176;16.316;2022-08-01T04:08:02;20.40;99.90
20815;DHT22;10568;48.176;16.316;2022-08-01T04:10:28;20.30;99.90
20815;DHT22;10568;48.176;16.316;2022-08-01T04:12:54;20.30;99.90
20815;DHT22;10568;48.176;16.316;2022-08-01T04:15:20;20.40;99.90
20815;DHT22;10568;48.176;16.316;2022-08-01T04:17:47;20.40;99.90
20815;DHT22;10568;48.176;16.316;2022-08-01T04:20:13;20.40;99.90
20815;DHT22;10568;48.176;16.316;2022-08-01T04:22:41;20.40;99.90
20815;DHT22;10568;48.176;16.316;2022-08-01T04:25:33;20.50;99.90
20815;DHT22;10568;48.176;16.316;2022-08-01T04:28:02;20.50;99.90
20815;DHT22;10568;48.176;16.316;2022-08-01T04:30:31;20.50;99.90
20815;DHT22;10568;48.176;16.316;2022-08-01T04:33:01;20.50;99.90
20815;DHT22;10568;48.176;16.316;2022-08-01T04:35:28;20.40;99.90
20815;DHT22;10568;48.176;16.316;2022-08-01T04:37:56;20.30;99.90
20815;DHT22;10568;48.176;16.316;2022-08-01T04:40:24;20.10;99.90
20815;DHT22;10568;48.176;16.316;2022-08-01T04:42:51;20.00;99.90
20815;DHT22;10568;48.176;16.316;2022-08-01T04:45:18;19.90;99.90
20815;DHT22;10568;48.176;16.316;2022-08-01T04:47:44;19.80;99.90
20815;DHT22;10568;48.176;16.316;2022-08-01T04:50:11;19.80;99.90
20815;DHT22;10568;48.176;16.316;2022-08-01T04:52:37;19.80;99.90
20815;DHT22;10568;48.176;16.316;2022-08-01T04:55:04;19.80;99.90
20815;DHT22;10568;48.176;16.316;2022-08-01T04:57:34;19.80;99.90
20815;DHT22;10568;48.176;16.316;2022-08-01T05:00:02;19.80;99.90
20815;DHT22;10568;48.176;16.316;2022-08-01T05:02:28;19.90;99.90
20815;DHT22;10568;48.176;16.316;2022-08-01T05:04:54;19.80;99.90
20815;DHT22;10568;48.176;16.316;2022-08-01T05:07:23;19.80;99.90
20815;DHT22;10568;48.176;16.316;2022-08-01T05:09:50;19.80;99.90
20815;DHT22;10568;48.176;16.316;2022-08-01T05:12:16;19.80;99.90
20815;DHT22;10568;48.176;16.316;2022-08-01T05:14:42;19.80;99.90
20815;DHT22;10568;48.176;16.316;2022-08-01T05:17:09;19.80;99.90
20815;DHT22;10568;48.176;16.316;2022-08-01T05:19:36;19.70;99.90
20815;DHT22;10568;48.176;16.316;2022-08-01T05:22:06;19.80;99.90
20815;DHT22;10568;48.176;16.316;2022-08-01T05:24:33;19.80;99.90
20815;DHT22;10568;48.176;16.316;2022-08-01T05:27:00;19.80;99.90
20815;DHT22;10568;48.176;16.316;2022-08-01T05:29:26;19.90;99.90
20815;DHT22;10568;48.176;16.316;2022-08-01T05:31:52;19.90;99.90
20815;DHT22;10568;48.176;16.316;2022-08-01T05:34:18;20.00;99.90
20815;DHT22;10568;48.176;16.316;2022-08-01T05:36:44;20.00;99.90
20815;DHT22;10568;48.176;16.316;2022-08-01T05:39:11;20.10;99.90
20815;DHT22;10568;48.176;16.316;2022-08-01T05:41:37;20.20;99.90
20815;DHT22;10568;48.176;16.316;2022-08-01T05:44:04;20.20;99.90
20815;DHT22;10568;48.176;16.316;2022-08-01T05:46:29;20.30;99.90
20815;DHT22;10568;48.176;16.316;2022-08-01T05:49:02;20.40;99.90
20815;DHT22;10568;48.176;16.316;2022-08-01T05:51:29;20.30;99.90
20815;DHT22;10568;48.176;16.316;2022-08-01T05:53:55;20.40;99.90
20815;DHT22;10568;48.176;16.316;2022-08-01T05:59:43;20.60;99.90
20815;DHT22;10568;48.176;16.316;2022-08-01T06:02:08;20.60;99.90
20815;DHT22;10568;48.176;16.316;2022-08-01T06:04:34;20.70;99.90
20815;DHT22;10568;48.176;16.316;2022-08-01T06:07:06;20.70;99.90
20815;DHT22;10568;48.176;16.316;2022-08-01T06:09:32;20.90;99.90
20815;DHT22;10568;48.176;16.316;2022-08-01T06:11:57;20.90;99.90
20815;DHT22;10568;48.176;16.316;2022-08-01T06:14:23;21.00;99.90
20815;DHT22;10568;48.176;16.316;2022-08-01T06:16:49;21.10;99.90
20815;DHT22;10568;48.176;16.316;2022-08-01T06:19:15;21.20;99.90
20815;DHT22;10568;48.176;16.316;2022-08-01T06:21:41;21.20;99.90
20815;DHT22;10568;48.176;16.316;2022-08-01T06:24:07;21.30;99.90
20815;DHT22;10568;48.176;16.316;2022-08-01T06:26:33;21.40;99.90
20815;DHT22;10568;48.176;16.316;2022-08-01T06:28:59;21.50;99.90
20815;DHT22;10568;48.176;16.316;2022-08-01T06:31:24;21.60;99.90
20815;DHT22;10568;48.176;16.316;2022-08-01T06:33:50;21.70;99.90
20815;DHT22;10568;48.176;16.316;2022-08-01T06:36:16;21.80;99.90
20815;DHT22;10568;48.176;16.316;2022-08-01T06:38:42;22.00;99.90
20815;DHT22;10568;48.176;16.316;2022-08-01T06:41:08;22.10;99.90
20815;DHT22;10568;48.176;16.316;2022-08-01T06:43:33;22.20;99.90
20815;DHT22;10568;48.176;16.316;2022-08-01T06:45:59;22.40;99.90
20815;DHT22;10568;48.176;16.316;2022-08-01T06:48:25;22.50;99.90
20815;DHT22;10568;48.176;16.316;2022-08-01T06:50:51;22.70;99.90
20815;DHT22;10568;48.176;16.316;2022-08-01T06:53:33;22.90;99.90
20815;DHT22;10568;48.176;16.316;2022-08-01T06:56:00;23.10;99.90
20815;DHT22;10568;48.176;16.316;2022-08-01T06:58:26;23.30;99.90
20815;DHT22;10568;48.176;16.316;2022-08-01T07:00:52;23.70;99.90
20815;DHT22;10568;48.176;16.316;2022-08-01T07:03:17;24.30;99.90
20815;DHT22;10568;48.176;16.316;2022-08-01T07:05:43;24.60;99.90
20815;DHT22;10568;48.176;16.316;2022-08-01T07:08:09;25.10;99.90
20815;DHT22;10568;48.176;16.316;2022-08-01T07:10:34;25.30;99.90
20815;DHT22;10568;48.176;16.316;2022-08-01T07:13:00;25.20;99.90
20815;DHT22;10568;48.176;16.316;2022-08-01T07:15:26;25.10;99.90
20815;DHT22;10568;48.176;16.316;2022-08-01T07:17:52;25.10;99.90
20815;DHT22;10568;48.176;16.316;2022-08-01T07:20:18;25.10;99.90
20815;DHT22;10568;48.176;16.316;2022-08-01T07:22:44;25.20;99.90
20815;DHT22;10568;48.176;16.316;2022-08-01T07:25:10;25.20;99.90
20815;DHT22;10568;48.176;16.316;2022-08-01T07:27:36;25.30;99.90
20815;DHT22;10568;48.176;16.316;2022-08-01T07:30:04;25.20;99.90
20815;DHT22;10568;48.176;16.316;2022-08-01T07:32:30;25.20;99.90
20815;DHT22;10568;48.176;16.316;2022-08-01T07:34:56;25.00;99.90
20815;DHT22;10568;48.176;16.316;2022-08-01T07:37:22;24.80;99.90
20815;DHT22;10568;48.176;16.316;2022-08-01T07:39:49;24.70;99.90
20815;DHT22;10568;48.176;16.316;2022-08-01T07:42:15;24.50;99.90
20815;DHT22;10568;48.176;16.316;2022-08-01T07:44:41;24.40;99.90
20815;DHT22;10568;48.176;16.316;2022-08-01T07:47:07;24.40;99.90
20815;DHT22;10568;48.176;16.316;2022-08-01T07:49:33;24.30;99.90
20815;DHT22;10568;48.176;16.316;2022-08-01T07:55:21;24.20;99.90
20815;DHT22;10568;48.176;16.316;2022-08-01T07:57:47;24.10;99.90
20815;DHT22;10568;48.176;16.316;2022-08-01T08:00:13;24.00;99.90
20815;DHT22;10568;48.176;16.316;2022-08-01T08:02:39;23.90;99.90
20815;DHT22;10568;48.176;16.316;2022-08-01T08:05:05;23.90;99.90
20815;DHT22;10568;48.176;16.316;2022-08-01T08:07:32;23.80;99.90
20815;DHT22;10568;48.176;16.316;2022-08-01T08:09:59;23.80;99.90
20815;DHT22;10568;48.176;16.316;2022-08-01T08:12:25;23.70;99.90
20815;DHT22;10568;48.176;16.316;2022-08-01T08:14:51;23.70;99.90
20815;DHT22;10568;48.176;16.316;2022-08-01T08:17:17;23.70;99.90
20815;DHT22;10568;48.176;16.316;2022-08-01T08:19:42;23.90;99.90
20815;DHT22;10568;48.176;16.316;2022-08-01T08:22:09;24.00;99.90
20815;DHT22;10568;48.176;16.316;2022-08-01T08:24:36;24.10;99.90
20815;DHT22;10568;48.176;16.316;2022-08-01T08:27:03;24.20;99.90
20815;DHT22;10568;48.176;16.316;2022-08-01T08:29:30;24.50;99.90
20815;DHT22;10568;48.176;16.316;2022-08-01T08:31:57;24.80;99.90
20815;DHT22;10568;48.176;16.316;2022-08-01T08:34:24;25.40;99.90
20815;DHT22;10568;48.176;16.316;2022-08-01T08:36:50;25.90;99.90
20815;DHT22;10568;48.176;16.316;2022-08-01T08:39:17;26.10;99.90
20815;DHT22;10568;48.176;16.316;2022-08-01T08:41:43;26.40;99.90
20815;DHT22;10568;48.176;16.316;2022-08-01T08:44:10;26.60;99.90
20815;DHT22;10568;48.176;16.316;2022-08-01T08:46:44;26.80;99.90
20815;DHT22;10568;48.176;16.316;2022-08-01T08:49:13;26.90;99.90
20815;DHT22;10568;48.176;16.316;2022-08-01T08:51:42;27.00;99.90
20815;DHT22;10568;48.176;16.316;2022-08-01T08:54:11;26.90;99.90
20815;DHT22;10568;48.176;16.316;2022-08-01T08:56:39;27.00;99.90
20815;DHT22;10568;48.176;16.316;2022-08-01T08:59:06;27.20;99.90
20815;DHT22;10568;48.176;16.316;2022-08-01T09:01:32;27.40;99.90
20815;DHT22;10568;48.176;16.316;2022-08-01T09:03:59;27.40;99.90
20815;DHT22;10568;48.176;16.316;2022-08-01T09:06:25;27.80;99.90
20815;DHT22;10568;48.176;16.316;2022-08-01T09:08:51;28.00;99.90
20815;DHT22;10568;48.176;16.316;2022-08-01T09:11:16;28.20;99.90
20815;DHT22;10568;48.176;16.316;2022-08-01T09:14:01;28.40;99.90
20815;DHT22;10568;48.176;16.316;2022-08-01T09:16:28;28.50;99.90
20815;DHT22;10568;48.176;16.316;2022-08-01T09:18:54;28.90;99.90
20815;DHT22;10568;48.176;16.316;2022-08-01T09:21:31;29.00;99.90
20815;DHT22;10568;48.176;16.316;2022-08-01T09:23:57;29.00;99.90
20815;DHT22;10568;48.176;16.316;2022-08-01T09:26:34;28.80;99.90
20815;DHT22;10568;48.176;16.316;2022-08-01T09:29:03;28.50;99.90
20815;DHT22;10568;48.176;16.316;2022-08-01T09:31:29;28.50;99.90
20815;DHT22;10568;48.176;16.316;2022-08-01T09:33:56;29.10;99.90
20815;DHT22;10568;48.176;16.316;2022-08-01T09:36:24;29.20;99.90
20815;DHT22;10568;48.176;16.316;2022-08-01T09:38:51;28.80;99.90
20815;DHT22;10568;48.176;16.316;2022-08-01T09:41:28;29.10;99.90
20815;DHT22;10568;48.176;16.316;2022-08-01T09:43:55;29.20;99.90
20815;DHT22;10568;48.176;16.316;2022-08-01T09:46:21;29.50;99.90
20815;DHT22;10568;48.176;16.316;2022-08-01T09:49:04;29.90;99.90
20815;DHT22;10568;48.176;16.316;2022-08-01T09:51:39;30.10;99.90
20815;DHT22;10568;48.176;16.316;2022-08-01T09:54:06;29.50;99.90
20815;DHT22;10568;48.176;16.316;2022-08-01T09:56:37;28.90;99.70
20815;DHT22;10568;48.176;16.316;2022-08-01T09:59:03;28.50;99.90
20815;DHT22;10568;48.176;16.316;2022-08-01T10:01:44;28.40;99.90
20815;DHT22;10568;48.176;16.316;2022-08-01T10:04:20;28.50;99.90
20815;DHT22;10568;48.176;16.316;2022-08-01T10:06:48;28.50;99.90
20815;DHT22;10568;48.176;16.316;2022-08-01T10:09:33;28.20;99.90
20815;DHT22;10568;48.176;16.316;2022-08-01T10:12:03;27.90;99.90
20815;DHT22;10568;48.176;16.316;2022-08-01T10:14:30;27.70;99.90
20815;DHT22;10568;48.176;16.316;2022-08-01T10:16:58;27.70;99.90
20815;DHT22;10568;48.176;16.316;2022-08-01T10:19:27;27.40;99.90
20815;DHT22;10568;48.176;16.316;2022-08-01T10:21:54;27.70;99.90
20815;DHT22;10568;48.176;16.316;2022-08-01T10:24:21;28.50;99.90
20815;DHT22;10568;48.176;16.316;2022-08-01T10:27:03;29.10;99.90
20815;DHT22;10568;48.176;16.316;2022-08-01T10:29:36;29.70;99.70
20815;DHT22;10568;48.176;16.316;2022-08-01T10:32:05;30.40;99.90
20815;DHT22;10568;48.176;16.316;2022-08-01T10:34:33;30.30;98.40
20815;DHT22;10568;48.176;16.316;2022-08-01T10:36:59;30.40;99.90
20815;DHT22;10568;48.176;16.316;2022-08-01T10:39:26;30.40;98.80
20815;DHT22;10568;48.176;16.316;2022-08-01T10:41:55;30.80;99.70
20815;DHT22;10568;48.176;16.316;2022-08-01T10:44:25;31.00;97.30
20815;DHT22;10568;48.176;16.316;2022-08-01T10:46:57;31.10;99.90
20815;DHT22;10568;48.176;16.316;2022-08-01T10:49:28;31.30;97.50
20815;DHT22;10568;48.176;16.316;2022-08-01T10:51:55;31.50;96.00
20815;DHT22;10568;48.176;16.316;2022-08-01T10:54:24;31.70;96.80
20815;DHT22;10568;48.176;16.316;2022-08-01T10:56:51;32.00;97.70
20815;DHT22;10568;48.176;16.316;2022-08-01T10:59:23;32.20;95.20
20815;DHT22;10568;48.176;16.316;2022-08-01T11:02:03;32.30;96.40
20815;DHT22;10568;48.176;16.316;2022-08-01T11:05:09;32.40;96.40
20815;DHT22;10568;48.176;16.316;2022-08-01T11:07:48;32.60;93.20
20815;DHT22;10568;48.176;16.316;2022-08-01T11:10:30;32.80;94.90
20815;DHT22;10568;48.176;16.316;2022-08-01T11:12:58;32.70;93.90
20815;DHT22;10568;48.176;16.316;2022-08-01T11:15:26;33.00;93.20
20815;DHT22;10568;48.176;16.316;2022-08-01T11:17:57;33.00;94.00
20815;DHT22;10568;48.176;16.316;2022-08-01T11:20:54;33.30;93.00
20815;DHT22;10568;48.176;16.316;2022-08-01T11:23:23;32.90;93.40
20815;DHT22;10568;48.176;16.316;2022-08-01T11:33:19;33.40;91.50
20815;DHT22;10568;48.176;16.316;2022-08-01T11:38:45;33.50;90.60
20815;DHT22;10568;48.176;16.316;2022-08-01T11:41:12;33.30;91.30
20815;DHT22;10568;48.176;16.316;2022-08-01T11:43:58;32.90;93.10
20815;DHT22;10568;48.176;16.316;2022-08-01T11:49:49;32.10;94.00
20815;DHT22;10568;48.176;16.316;2022-08-01T11:52:28;32.10;90.80
20815;DHT22;10568;48.176;16.316;2022-08-01T11:57:31;32.00;90.00
20815;DHT22;10568;48.176;16.316;2022-08-01T11:59:59;32.10;90.00
20815;DHT22;10568;48.176;16.316;2022-08-01T12:02:28;32.20;92.00
20815;DHT22;10568;48.176;16.316;2022-08-01T12:05:01;32.10;91.50
20815;DHT22;10568;48.176;16.316;2022-08-01T12:07:29;32.00;89.80
20815;DHT22;10568;48.176;16.316;2022-08-01T12:10:11;31.60;91.10
20815;DHT22;10568;48.176;16.316;2022-08-01T12:13:00;31.10;90.70
20815;DHT22;10568;48.176;16.316;2022-08-01T12:15:34;30.30;91.10
20815;DHT22;10568;48.176;16.316;2022-08-01T12:18:02;30.00;91.80
20815;DHT22;10568;48.176;16.316;2022-08-01T12:20:32;29.70;91.40
20815;DHT22;10568;48.176;16.316;2022-08-01T12:23:02;29.50;92.50
20815;DHT22;10568;48.176;16.316;2022-08-01T12:25:28;29.20;92.70
20815;DHT22;10568;48.176;16.316;2022-08-01T12:27:58;28.90;93.60
20815;DHT22;10568;48.176;16.316;2022-08-01T12:30:24;28.80;94.50
20815;DHT22;10568;48.176;16.316;2022-08-01T12:32:54;28.50;93.70
20815;DHT22;10568;48.176;16.316;2022-08-01T12:35:25;28.20;92.00
20815;DHT22;10568;48.176;16.316;2022-08-01T12:37:59;28.10;92.20
20815;DHT22;10568;48.176;16.316;2022-08-01T12:40:28;27.90;92.70
20815;DHT22;10568;48.176;16.316;2022-08-01T12:42:59;27.90;92.90
20815;DHT22;10568;48.176;16.316;2022-08-01T12:45:38;27.90;93.30
20815;DHT22;10568;48.176;16.316;2022-08-01T12:48:09;27.90;93.80
20815;DHT22;10568;48.176;16.316;2022-08-01T12:50:38;27.80;93.00
20815;DHT22;10568;48.176;16.316;2022-08-01T12:53:05;27.70;93.40
20815;DHT22;10568;48.176;16.316;2022-08-01T12:55:31;27.60;93.60
20815;DHT22;10568;48.176;16.316;2022-08-01T12:58:23;27.40;93.90
20815;DHT22;10568;48.176;16.316;2022-08-01T13:01:01;27.30;96.30
20815;DHT22;10568;48.176;16.316;2022-08-01T13:03:28;27.20;95.70
20815;DHT22;10568;48.176;16.316;2022-08-01T13:05:56;27.00;97.80
20815;DHT22;10568;48.176;16.316;2022-08-01T13:08:24;27.00;96.00
20815;DHT22;10568;48.176;16.316;2022-08-01T13:11:03;27.00;96.90
20815;DHT22;10568;48.176;16.316;2022-08-01T13:13:42;26.90;97.30
20815;DHT22;10568;48.176;16.316;2022-08-01T13:16:09;26.70;97.90
20815;DHT22;10568;48.176;16.316;2022-08-01T13:18:37;26.70;97.50
20815;DHT22;10568;48.176;16.316;2022-08-01T13:23:39;27.80;97.60
20815;DHT22;10568;48.176;16.316;2022-08-01T13:26:06;28.30;98.80
20815;DHT22;10568;48.176;16.316;2022-08-01T13:28:32;28.70;98.30
20815;DHT22;10568;48.176;16.316;2022-08-01T13:31:03;29.30;97.80
20815;DHT22;10568;48.176;16.316;2022-08-01T13:33:47;29.60;96.80
20815;DHT22;10568;48.176;16.316;2022-08-01T13:36:14;29.60;95.30
20815;DHT22;10568;48.176;16.316;2022-08-01T13:38:41;29.80;97.30
20815;DHT22;10568;48.176;16.316;2022-08-01T13:41:26;30.10;96.70
20815;DHT22;10568;48.176;16.316;2022-08-01T13:43:52;30.50;95.50
20815;DHT22;10568;48.176;16.316;2022-08-01T13:46:18;30.70;95.00
20815;DHT22;10568;48.176;16.316;2022-08-01T13:48:44;30.80;92.60
20815;DHT22;10568;48.176;16.316;2022-08-01T13:51:10;30.80;91.90
20815;DHT22;10568;48.176;16.316;2022-08-01T13:53:36;30.70;93.70
20815;DHT22;10568;48.176;16.316;2022-08-01T13:56:02;30.50;92.90
20815;DHT22;10568;48.176;16.316;2022-08-01T13:58:28;30.30;93.80
20815;DHT22;10568;48.176;16.316;2022-08-01T14:00:54;30.10;92.40
20815;DHT22;10568;48.176;16.316;2022-08-01T14:03:22;30.00;93.10
20815;DHT22;10568;48.176;16.316;2022-08-01T14:05:48;30.00;92.80
20815;DHT22;10568;48.176;16.316;2022-08-01T14:08:14;29.90;92.50
20815;DHT22;10568;48.176;16.316;2022-08-01T14:10:40;29.90;93.20
20815;DHT22;10568;48.176;16.316;2022-08-01T14:13:06;29.80;92.70
20815;DHT22;10568;48.176;16.316;2022-08-01T14:15:33;29.70;92.30
20815;DHT22;10568;48.176;16.316;2022-08-01T14:17:59;29.40;91.80
20815;DHT22;10568;48.176;16.316;2022-08-01T14:20:25;29.40;92.20
20815;DHT22;10568;48.176;16.316;2022-08-01T14:22:51;29.20;93.30
20815;DHT22;10568;48.176;16.316;2022-08-01T14:25:17;29.10;93.20
20815;DHT22;10568;48.176;16.316;2022-08-01T14:27:44;29.00;92.20
20815;DHT22;10568;48.176;16.316;2022-08-01T14:30:12;29.10;94.10
20815;DHT22;10568;48.176;16.316;2022-08-01T14:32:38;29.10;95.00
20815;DHT22;10568;48.176;16.316;2022-08-01T14:35:05;29.10;93.40
20815;DHT22;10568;48.176;16.316;2022-08-01T14:37:32;29.10;92.80
20815;DHT22;10568;48.176;16.316;2022-08-01T14:39:58;29.20;93.10
20815;DHT22;10568;48.176;16.316;2022-08-01T14:42:25;29.20;92.70
20815;DHT22;10568;48.176;16.316;2022-08-01T14:44:51;29.30;92.50
20815;DHT22;10568;48.176;16.316;2022-08-01T14:47:17;29.30;91.90
20815;DHT22;10568;48.176;16.316;2022-08-01T14:49:43;29.10;91.90
20815;DHT22;10568;48.176;16.316;2022-08-01T14:52:08;29.10;92.20
20815;DHT22;10568;48.176;16.316;2022-08-01T14:54:34;28.90;92.50
20815;DHT22;10568;48.176;16.316;2022-08-01T14:57:00;28.80;92.30
20815;DHT22;10568;48.176;16.316;2022-08-01T14:59:26;28.90;93.80
20815;DHT22;10568;48.176;16.316;2022-08-01T15:01:51;29.00;92.70
20815;DHT22;10568;48.176;16.316;2022-08-01T15:04:17;29.00;92.90
20815;DHT22;10568;48.176;16.316;2022-08-01T15:06:44;28.90;92.00
20815;DHT22;10568;48.176;16.316;2022-08-01T15:09:10;28.90;92.20
20815;DHT22;10568;48.176;16.316;2022-08-01T15:11:36;28.90;92.40
20815;DHT22;10568;48.176;16.316;2022-08-01T15:14:02;28.90;92.90
20815;DHT22;10568;48.176;16.316;2022-08-01T15:16:47;28.80;92.40
20815;DHT22;10568;48.176;16.316;2022-08-01T15:19:13;28.60;92.30
20815;DHT22;10568;48.176;16.316;2022-08-01T15:21:39;28.60;92.60
20815;DHT22;10568;48.176;16.316;2022-08-01T15:24:05;28.60;93.50
20815;DHT22;10568;48.176;16.316;2022-08-01T15:26:31;28.50;93.10
20815;DHT22;10568;48.176;16.316;2022-08-01T15:28:57;28.40;93.00
20815;DHT22;10568;48.176;16.316;2022-08-01T15:31:23;28.40;92.90
20815;DHT22;10568;48.176;16.316;2022-08-01T15:33:49;28.30;94.10
20815;DHT22;10568;48.176;16.316;2022-08-01T15:36:15;28.20;92.50
20815;DHT22;10568;48.176;16.316;2022-08-01T15:38:41;28.10;93.50
20815;DHT22;10568;48.176;16.316;2022-08-01T15:41:06;28.20;94.00
20815;DHT22;10568;48.176;16.316;2022-08-01T15:43:32;28.40;93.50
20815;DHT22;10568;48.176;16.316;2022-08-01T15:45:58;28.40;94.10
20815;DHT22;10568;48.176;16.316;2022-08-01T15:48:24;28.30;94.50
20815;DHT22;10568;48.176;16.316;2022-08-01T15:50:50;28.30;93.70
20815;DHT22;10568;48.176;16.316;2022-08-01T15:53:16;28.20;94.60
20815;DHT22;10568;48.176;16.316;2022-08-01T15:55:41;28.20;94.10
20815;DHT22;10568;48.176;16.316;2022-08-01T15:58:07;28.10;93.90